Time;durP1;ratioP1;P1;durP2;ratioP2;P2;SDS_P1;SDS_P2;PMS_P1;PMS_P2;Temp;Humidity;BMP_temperature;BMP_pressure;BME280_temperature;BME280_humidity;BME280_pressure;Samples;Min_cycle;Max_cycle;Signal;HPM_P1;HPM_P2
2023/06/21 00:02:23;;;;;;;4.72;3.08;;;21.20;99.90;;;;;;5094591;28;20085;-56
2023/06/21 00:04:50;;;;;;;5.22;2.70;;;21.20;99.90;;;;;;5095115;28;20028;-57
2023/06/21 00:07:16;;;;;;;4.80;2.55;;;21.20;99.90;;;;;;5094657;28;20562;-57
2023/06/21 00:09:41;;;;;;;5.35;2.90;;;21.20;99.90;;;;;;5094664;28;20020;-57
2023/06/21 00:12:08;;;;;;;4.18;2.75;;;21.00;99.90;;;;;;5094086;28;20474;-57
2023/06/21 00:14:33;;;;;;;3.72;2.83;;;20.90;99.90;;;;;;5093133;28;20398;-57
2023/06/21 00:16:59;;;;;;;6.70;2.90;;;20.80;99.90;;;;;;5094336;28;20028;-57
2023/06/21 00:19:25;;;;;;;4.80;2.80;;;20.80;99.90;;;;;;5094492;28;20106;-57
2023/06/21 00:21:51;;;;;;;4.28;2.92;;;20.70;99.90;;;;;;5094516;28;20036;-58
2023/06/21 00:24:16;;;;;;;5.38;3.00;;;20.70;99.90;;;;;;5094247;28;20028;-57
2023/06/21 00:26:42;;;;;;;5.63;3.47;;;20.60;99.90;;;;;;5093776;28;20035;-57
2023/06/21 00:29:08;;;;;;;4.18;2.65;;;20.60;99.90;;;;;;5094216;28;20474;-57
2023/06/21 00:31:33;;;;;;;4.38;3.00;;;20.60;99.90;;;;;;5094651;28;20470;-56
2023/06/21 00:33:59;;;;;;;6.72;3.15;;;20.50;99.90;;;;;;5093970;28;20032;-57
2023/06/21 00:36:25;;;;;;;5.30;3.30;;;20.50;99.90;;;;;;5094115;28;20076;-57
2023/06/21 00:38:50;;;;;;;6.72;3.30;;;20.50;99.90;;;;;;5094139;28;20514;-57
2023/06/21 00:41:16;;;;;;;6.28;3.38;;;20.40;99.90;;;;;;5093687;28;20501;-57
2023/06/21 00:43:42;;;;;;;4.60;3.20;;;20.30;99.90;;;;;;5093891;28;20397;-57
2023/06/21 00:46:07;;;;;;;6.20;3.35;;;20.30;99.90;;;;;;5094212;28;20028;-57
2023/06/21 00:48:33;;;;;;;8.25;3.45;;;20.30;99.90;;;;;;5093818;28;20432;-57
2023/06/21 00:50:59;;;;;;;4.85;3.25;;;20.30;99.90;;;;;;5093833;28;20051;-57
2023/06/21 00:53:27;;;;;;;6.50;3.25;;;20.30;99.90;;;;;;5092181;28;20433;-57
2023/06/21 00:55:55;;;;;;;6.20;3.53;;;20.40;99.90;;;;;;5093348;28;20401;-56
2023/06/21 00:58:20;;;;;;;5.82;3.35;;;20.60;99.90;;;;;;5094034;28;20060;-56
2023/06/21 01:00:50;;;;;;;7.20;3.28;;;20.70;99.90;;;;;;5093599;28;20058;-56
2023/06/21 01:03:20;;;;;;;6.85;3.53;;;20.80;99.90;;;;;;5093469;28;20085;-57
2023/06/21 01:06:10;;;;;;;5.43;3.30;;;20.70;99.90;;;;;;5093063;28;20024;-57
2023/06/21 01:08:56;;;;;;;5.75;3.33;;;20.70;99.90;;;;;;5093371;28;20057;-58
2023/06/21 01:11:30;;;;;;;4.93;3.30;;;20.80;99.90;;;;;;5093284;28;20077;-57
2023/06/21 01:14:08;;;;;;;6.18;3.35;;;20.70;99.90;;;;;;5093236;28;20110;-57
2023/06/21 01:16:54;;;;;;;4.95;3.00;;;20.70;99.90;;;;;;5093569;28;20244;-57
2023/06/21 01:19:29;;;;;;;6.63;3.10;;;20.70;99.90;;;;;;5072900;28;20020;-57
2023/06/21 01:21:57;;;;;;;4.80;3.10;;;20.70;99.90;;;;;;5072603;28;20450;-57
2023/06/21 01:24:41;;;;;;;4.45;3.00;;;20.60;99.90;;;;;;5072683;28;20074;-57
2023/06/21 01:27:48;;;;;;;5.93;3.40;;;20.50;99.90;;;;;;5071988;28;20082;-57
2023/06/21 01:30:16;;;;;;;7.93;3.13;;;20.40;99.90;;;;;;5073236;28;20039;-58
2023/06/21 01:32:42;;;;;;;5.70;3.20;;;20.40;99.90;;;;;;5071333;28;20534;-57
2023/06/21 01:35:09;;;;;;;4.18;2.95;;;20.40;99.90;;;;;;5072637;28;20013;-57
2023/06/21 01:37:36;;;;;;;5.10;3.30;;;20.40;99.90;;;;;;5072923;28;20043;-57
2023/06/21 01:40:09;;;;;;;6.50;3.58;;;20.30;99.90;;;;;;5072389;28;20024;-57
2023/06/21 01:42:35;;;;;;;6.78;3.55;;;20.20;99.90;;;;;;5072458;28;20037;-57
2023/06/21 01:45:00;;;;;;;4.78;3.33;;;20.20;99.90;;;;;;5072525;28;20017;-57
2023/06/21 01:47:27;;;;;;;6.43;3.38;;;20.10;99.90;;;;;;5072676;28;20043;-57
2023/06/21 01:49:52;;;;;;;4.75;3.40;;;20.10;99.90;;;;;;5072437;28;20013;-57
2023/06/21 01:52:19;;;;;;;5.30;3.47;;;20.10;99.90;;;;;;5071933;28;20090;-57
2023/06/21 01:54:46;;;;;;;5.78;3.35;;;20.10;99.90;;;;;;5072211;28;20363;-57
2023/06/21 01:57:14;;;;;;;5.68;3.60;;;20.10;99.90;;;;;;5072273;28;20391;-57
2023/06/21 01:59:41;;;;;;;6.25;3.83;;;20.10;99.90;;;;;;5072601;28;20029;-57
2023/06/21 02:02:08;;;;;;;4.90;3.58;;;20.10;99.90;;;;;;5072164;28;20117;-57
2023/06/21 02:04:35;;;;;;;5.05;3.58;;;20.00;99.90;;;;;;5071978;28;20052;-57
2023/06/21 02:07:02;;;;;;;7.68;3.80;;;20.00;99.90;;;;;;5071727;28;20134;-56
2023/06/21 02:09:30;;;;;;;5.93;3.47;;;20.10;99.90;;;;;;5072029;28;20032;-57
2023/06/21 02:11:56;;;;;;;5.43;3.88;;;20.20;99.90;;;;;;5071741;28;20032;-58
2023/06/21 02:14:22;;;;;;;7.70;3.90;;;20.30;99.90;;;;;;5070701;28;20048;-57
2023/06/21 02:16:48;;;;;;;5.90;4.10;;;20.30;99.90;;;;;;5075038;28;20033;-58
2023/06/21 02:19:14;;;;;;;5.68;3.78;;;20.40;99.90;;;;;;5091912;28;20039;-58
2023/06/21 02:21:40;;;;;;;5.68;3.72;;;20.40;99.90;;;;;;5091934;28;20162;-57
2023/06/21 02:24:05;;;;;;;7.80;3.95;;;20.40;99.90;;;;;;5092017;28;20024;-57
2023/06/21 02:26:31;;;;;;;5.57;3.63;;;20.40;99.90;;;;;;5091901;28;20433;-57
2023/06/21 02:28:57;;;;;;;7.03;3.88;;;20.30;99.90;;;;;;5090730;28;20568;-58
2023/06/21 02:31:23;;;;;;;5.15;3.65;;;20.40;99.90;;;;;;5091606;28;20441;-57
2023/06/21 02:33:49;;;;;;;7.60;3.83;;;20.30;99.90;;;;;;5091639;28;20032;-57
2023/06/21 02:36:15;;;;;;;5.55;4.00;;;20.30;99.90;;;;;;5091636;28;20524;-57
2023/06/21 02:38:41;;;;;;;6.50;3.80;;;20.20;99.90;;;;;;5092000;28;20518;-57
2023/06/21 02:41:07;;;;;;;6.72;3.97;;;20.10;99.90;;;;;;5091728;28;20028;-58
2023/06/21 02:43:33;;;;;;;6.13;4.03;;;20.00;99.90;;;;;;5091524;28;20111;-58
2023/06/21 02:46:00;;;;;;;6.28;4.07;;;19.90;99.90;;;;;;5091638;28;20031;-57
2023/06/21 02:48:26;;;;;;;6.03;4.65;;;19.90;99.90;;;;;;5091884;28;20032;-57
2023/06/21 02:50:51;;;;;;;9.77;4.80;;;19.80;99.90;;;;;;5091155;28;20546;-57
2023/06/21 02:53:17;;;;;;;6.28;4.38;;;19.70;99.90;;;;;;5091068;28;20044;-57
2023/06/21 02:55:43;;;;;;;5.95;4.15;;;19.70;99.90;;;;;;5091730;28;20016;-57
2023/06/21 02:58:08;;;;;;;5.75;4.40;;;19.70;99.90;;;;;;5091519;28;20062;-58
2023/06/21 03:00:34;;;;;;;5.15;4.05;;;19.60;99.90;;;;;;5091414;28;20028;-57
2023/06/21 03:03:00;;;;;;;7.50;4.30;;;19.60;99.90;;;;;;5091298;28;20024;-57
2023/06/21 03:05:29;;;;;;;6.55;4.20;;;19.60;99.90;;;;;;5090077;28;20061;-57
2023/06/21 03:07:57;;;;;;;4.70;4.10;;;19.60;99.90;;;;;;5091323;28;20051;-57
2023/06/21 03:10:23;;;;;;;6.13;4.35;;;19.60;99.90;;;;;;5091243;28;20559;-58
2023/06/21 03:12:49;;;;;;;4.30;3.90;;;19.50;99.90;;;;;;5091214;28;20141;-57
2023/06/21 03:15:14;;;;;;;5.35;4.28;;;19.50;99.90;;;;;;5091215;28;20111;-57
2023/06/21 03:17:40;;;;;;;6.90;4.50;;;19.50;99.90;;;;;;5090933;28;20111;-57
2023/06/21 03:20:12;;;;;;;7.72;4.05;;;19.50;99.90;;;;;;5090797;28;20390;-57
2023/06/21 03:22:38;;;;;;;4.95;3.72;;;19.60;99.90;;;;;;5090948;28;20063;-57
2023/06/21 03:25:04;;;;;;;5.47;3.67;;;19.70;99.90;;;;;;5091240;28;20109;-58
2023/06/21 03:27:30;;;;;;;5.68;3.72;;;19.90;99.90;;;;;;5091424;28;20067;-58
2023/06/21 03:29:55;;;;;;;5.15;3.40;;;20.00;99.90;;;;;;5095302;28;20537;-57
2023/06/21 03:32:21;;;;;;;4.72;3.50;;;20.00;99.90;;;;;;5095506;28;20116;-58
2023/06/21 03:34:47;;;;;;;7.00;3.80;;;20.00;99.90;;;;;;5094779;28;20043;-57
2023/06/21 03:37:12;;;;;;;5.85;3.70;;;20.10;99.90;;;;;;5093854;28;20031;-57
2023/06/21 03:39:38;;;;;;;6.07;4.38;;;20.10;99.90;;;;;;5095116;28;20020;-57
2023/06/21 03:42:05;;;;;;;5.18;3.67;;;20.10;99.90;;;;;;5095435;28;20032;-57
2023/06/21 03:44:30;;;;;;;7.38;3.92;;;20.00;99.90;;;;;;5094937;28;20103;-58
2023/06/21 03:46:58;;;;;;;6.03;3.92;;;19.90;99.90;;;;;;5094858;28;20115;-58
2023/06/21 03:49:24;;;;;;;6.75;3.80;;;19.90;99.90;;;;;;5094646;28;20530;-57
2023/06/21 03:51:50;;;;;;;6.75;3.97;;;19.90;99.90;;;;;;5093942;28;20024;-58
2023/06/21 03:54:15;;;;;;;5.40;3.95;;;19.80;99.90;;;;;;5094926;28;20444;-57
2023/06/21 03:56:41;;;;;;;6.05;4.15;;;19.70;99.90;;;;;;5094770;28;20057;-57
2023/06/21 03:59:07;;;;;;;4.55;4.05;;;19.60;99.90;;;;;;5094758;28;20074;-58
2023/06/21 04:01:33;;;;;;;6.25;3.97;;;19.50;99.90;;;;;;5094541;28;20036;-57
2023/06/21 04:03:58;;;;;;;6.65;3.70;;;19.40;99.90;;;;;;5094309;28;20028;-57
2023/06/21 04:06:25;;;;;;;4.88;3.92;;;19.40;99.90;;;;;;5094599;28;20034;-57
2023/06/21 04:08:51;;;;;;;5.68;3.72;;;19.30;99.90;;;;;;5094686;28;20028;-58
2023/06/21 04:11:17;;;;;;;5.00;3.88;;;19.30;99.90;;;;;;5094361;28;20042;-58
2023/06/21 04:13:42;;;;;;;6.20;4.07;;;19.30;99.90;;;;;;5094499;28;20036;-58
2023/06/21 04:16:08;;;;;;;5.32;3.65;;;19.30;99.90;;;;;;5094752;28;20398;-58
2023/06/21 04:18:34;;;;;;;5.53;4.18;;;19.30;99.90;;;;;;5093680;28;20039;-57
2023/06/21 04:20:59;;;;;;;6.20;4.15;;;19.30;99.90;;;;;;5094175;28;20024;-58
2023/06/21 04:23:28;;;;;;;5.85;4.05;;;19.30;99.90;;;;;;5094166;28;20032;-58
2023/06/21 04:25:53;;;;;;;5.18;3.65;;;19.30;99.90;;;;;;5094252;28;20481;-57
2023/06/21 04:28:24;;;;;;;4.38;3.35;;;19.30;99.90;;;;;;5094679;28;20024;-57
2023/06/21 04:30:51;;;;;;;4.20;3.50;;;19.30;99.90;;;;;;5093970;28;20024;-57
2023/06/21 04:33:16;;;;;;;5.80;3.92;;;19.30;99.90;;;;;;5093637;28;20059;-58
2023/06/21 04:35:42;;;;;;;8.18;4.30;;;19.40;99.90;;;;;;5094223;28;20024;-57
2023/06/21 04:38:08;;;;;;;7.72;3.60;;;19.50;99.90;;;;;;5094091;28;20547;-57
2023/06/21 04:40:33;;;;;;;8.25;3.90;;;19.60;99.90;;;;;;5093147;28;20501;-58
2023/06/21 04:43:01;;;;;;;4.95;3.72;;;19.60;99.90;;;;;;5093941;28;20505;-57
2023/06/21 04:45:27;;;;;;;5.80;3.58;;;19.60;99.90;;;;;;5093734;28;20031;-57
2023/06/21 04:47:57;;;;;;;6.95;4.00;;;19.80;99.90;;;;;;5093669;28;20551;-58
2023/06/21 04:50:23;;;;;;;6.80;3.88;;;19.80;99.90;;;;;;5093729;28;20059;-57
2023/06/21 04:52:49;;;;;;;6.78;3.75;;;19.80;99.90;;;;;;5093987;28;20121;-57
2023/06/21 04:55:18;;;;;;;6.10;3.83;;;19.90;99.90;;;;;;5093642;28;20024;-57
2023/06/21 04:57:45;;;;;;;5.95;3.40;;;19.90;99.90;;;;;;5093628;28;20727;-57
2023/06/21 05:00:12;;;;;;;6.88;4.07;;;19.80;99.90;;;;;;5092679;28;20023;-57
2023/06/21 05:02:39;;;;;;;6.28;3.70;;;19.90;99.90;;;;;;5093115;28;20031;-56
2023/06/21 05:05:04;;;;;;;5.70;3.95;;;19.70;99.90;;;;;;5093623;28;20462;-57
2023/06/21 05:07:30;;;;;;;5.28;4.38;;;19.60;99.90;;;;;;5093505;28;20028;-57
2023/06/21 05:09:56;;;;;;;6.35;4.40;;;19.40;99.90;;;;;;5093603;28;20020;-57
2023/06/21 05:12:21;;;;;;;6.38;4.47;;;19.30;99.90;;;;;;5093256;28;20024;-57
2023/06/21 05:14:47;;;;;;;7.47;4.95;;;19.30;99.90;;;;;;5093243;28;20028;-57
2023/06/21 05:17:15;;;;;;;6.82;4.65;;;19.20;99.90;;;;;;5092569;28;20032;-57
2023/06/21 05:19:42;;;;;;;6.25;4.55;;;19.20;99.90;;;;;;5093499;28;20111;-57
2023/06/21 05:22:08;;;;;;;6.00;4.63;;;19.20;99.90;;;;;;5093017;28;20044;-57
2023/06/21 05:24:34;;;;;;;4.85;4.35;;;19.30;99.90;;;;;;5093076;28;20027;-57
2023/06/21 05:26:59;;;;;;;8.38;4.60;;;19.30;99.90;;;;;;5093458;28;20077;-57
2023/06/21 05:29:25;;;;;;;5.43;4.85;;;19.30;99.90;;;;;;5093039;28;20032;-57
2023/06/21 05:31:51;;;;;;;6.78;6.07;;;19.30;99.90;;;;;;5092592;28;20032;-57
2023/06/21 05:34:17;;;;;;;7.80;6.22;;;19.30;99.90;;;;;;5092911;28;20040;-57
2023/06/21 05:36:42;;;;;;;9.32;6.53;;;19.40;99.90;;;;;;5093106;28;20028;-57
2023/06/21 05:39:08;;;;;;;8.68;7.57;;;19.40;99.90;;;;;;5092637;28;20114;-54
2023/06/21 05:41:34;;;;;;;6.78;5.50;;;19.50;99.90;;;;;;5093047;28;20024;-57
2023/06/21 05:43:59;;;;;;;6.03;4.57;;;19.50;99.90;;;;;;5091884;28;20028;-57
2023/06/21 05:46:25;;;;;;;6.28;4.38;;;19.60;99.90;;;;;;5091765;28;20039;-57
2023/06/21 05:48:51;;;;;;;5.50;4.13;;;19.80;99.90;;;;;;5091927;28;20541;-58
2023/06/21 05:51:16;;;;;;;4.68;3.97;;;20.00;99.90;;;;;;5091717;28;20032;-58
2023/06/21 05:53:42;;;;;;;5.45;3.85;;;20.10;99.90;;;;;;5092084;28;20185;-57
2023/06/21 05:56:07;;;;;;;6.13;3.72;;;20.10;99.90;;;;;;5092519;28;20085;-58
2023/06/21 05:58:33;;;;;;;5.03;3.90;;;20.10;99.90;;;;;;5092492;28;20032;-57
2023/06/21 06:00:59;;;;;;;6.05;3.78;;;20.20;99.90;;;;;;5091937;28;20020;-58
2023/06/21 06:03:25;;;;;;;6.97;3.42;;;20.10;99.90;;;;;;5091998;28;20406;-58
2023/06/21 06:05:52;;;;;;;8.45;4.20;;;20.10;99.90;;;;;;5092515;28;20028;-57
2023/06/21 06:08:18;;;;;;;4.30;3.60;;;20.10;99.90;;;;;;5092272;28;20032;-58
2023/06/21 06:10:43;;;;;;;7.75;3.60;;;20.00;99.90;;;;;;5092124;28;20547;-58
2023/06/21 06:13:09;;;;;;;5.43;4.05;;;20.00;99.90;;;;;;5092291;28;20093;-56
2023/06/21 06:15:35;;;;;;;6.38;3.65;;;20.00;99.90;;;;;;5091739;28;20020;-58
2023/06/21 06:18:00;;;;;;;5.80;4.05;;;20.00;99.90;;;;;;5091003;28;20032;-57
2023/06/21 06:20:27;;;;;;;7.30;3.70;;;19.90;99.90;;;;;;5091506;28;20367;-57
2023/06/21 06:22:53;;;;;;;5.82;4.03;;;19.80;99.90;;;;;;5091551;28;20048;-58
2023/06/21 06:25:19;;;;;;;7.30;4.18;;;19.80;99.90;;;;;;5091703;28;20077;-57
2023/06/21 06:27:45;;;;;;;5.68;3.92;;;19.80;99.90;;;;;;5090139;28;20073;-56
2023/06/21 06:30:12;;;;;;;6.15;3.60;;;19.90;99.90;;;;;;5091785;28;20099;-57
2023/06/21 06:32:37;;;;;;;6.00;3.90;;;19.90;99.90;;;;;;5090264;28;20040;-57
2023/06/21 06:35:04;;;;;;;7.88;3.50;;;19.90;99.90;;;;;;5092246;28;20165;-57
2023/06/21 06:37:30;;;;;;;6.10;3.50;;;19.80;99.90;;;;;;5091828;28;20028;-57
2023/06/21 06:39:55;;;;;;;6.95;3.38;;;19.90;99.90;;;;;;5091663;28;20024;-58
2023/06/21 06:42:22;;;;;;;4.13;3.20;;;19.90;99.90;;;;;;5091243;28;20031;-58
2023/06/21 06:44:47;;;;;;;8.07;3.47;;;19.90;99.90;;;;;;5090798;28;20028;-57
2023/06/21 06:47:13;;;;;;;6.15;3.33;;;19.90;99.90;;;;;;5091338;28;20032;-58
2023/06/21 06:49:39;;;;;;;7.60;3.50;;;19.90;99.90;;;;;;5091917;28;20500;-57
2023/06/21 06:52:05;;;;;;;6.88;3.30;;;19.90;99.90;;;;;;5091137;28;20121;-57
2023/06/21 06:54:31;;;;;;;4.40;3.10;;;19.90;99.90;;;;;;5091041;28;20026;-58
2023/06/21 06:56:57;;;;;;;6.40;3.10;;;20.00;99.90;;;;;;5091531;28;20565;-57
2023/06/21 06:59:23;;;;;;;4.35;3.38;;;20.20;99.90;;;;;;5091596;28;20103;-58
2023/06/21 07:01:50;;;;;;;6.05;3.40;;;20.30;99.90;;;;;;5091505;28;20452;-58
2023/06/21 07:04:15;;;;;;;9.85;3.65;;;20.60;99.90;;;;;;5091185;28;20082;-58
2023/06/21 07:06:41;;;;;;;4.68;3.28;;;20.80;99.90;;;;;;5090973;28;20028;-58
2023/06/21 07:09:08;;;;;;;7.00;3.33;;;20.90;99.90;;;;;;5091311;28;20051;-58
2023/06/21 07:11:37;;;;;;;6.63;3.78;;;20.80;99.90;;;;;;5090818;28;20032;-58
2023/06/21 07:14:02;;;;;;;4.90;3.30;;;21.00;99.90;;;;;;5091209;28;20032;-58
2023/06/21 07:16:35;;;;;;;4.88;3.10;;;21.20;99.90;;;;;;5091143;28;20162;-57
2023/06/21 07:19:03;;;;;;;4.97;3.50;;;21.20;99.90;;;;;;5090649;28;20029;-58
2023/06/21 07:21:29;;;;;;;4.45;3.10;;;21.40;99.90;;;;;;5090567;28;20154;-58
2023/06/21 07:23:56;;;;;;;4.63;3.28;;;21.40;99.90;;;;;;5090853;28;20055;-57
2023/06/21 07:26:21;;;;;;;4.32;3.25;;;21.30;99.90;;;;;;5090770;28;20406;-57
2023/06/21 07:28:47;;;;;;;5.15;3.47;;;21.20;99.90;;;;;;5091235;28;20028;-57
2023/06/21 07:31:13;;;;;;;5.22;3.95;;;21.10;99.90;;;;;;5090988;28;20367;-58
2023/06/21 07:33:38;;;;;;;6.00;4.07;;;21.10;99.90;;;;;;5091098;28;20093;-58
2023/06/21 07:36:05;;;;;;;4.20;3.30;;;21.10;99.90;;;;;;5091069;28;20028;-57
2023/06/21 07:38:31;;;;;;;8.15;3.65;;;21.10;99.90;;;;;;5091086;28;20028;-57
2023/06/21 07:40:57;;;;;;;6.55;3.40;;;21.00;99.90;;;;;;5090684;28;20397;-58
2023/06/21 07:43:22;;;;;;;4.97;3.38;;;21.00;99.90;;;;;;5090926;28;20024;-57
2023/06/21 07:45:48;;;;;;;6.35;3.55;;;21.00;99.90;;;;;;5091321;28;20024;-57
2023/06/21 07:48:13;;;;;;;4.32;3.47;;;21.00;99.90;;;;;;5091058;28;20024;-57
2023/06/21 07:50:40;;;;;;;6.97;3.60;;;21.00;99.90;;;;;;5091282;28;20126;-57
2023/06/21 07:53:06;;;;;;;7.95;3.40;;;21.10;99.90;;;;;;5089321;28;20527;-58
2023/06/21 07:55:31;;;;;;;7.20;3.35;;;21.10;99.90;;;;;;5090672;28;20095;-58
2023/06/21 07:57:57;;;;;;;5.20;3.10;;;21.20;99.90;;;;;;5090930;28;20071;-57
2023/06/21 08:00:23;;;;;;;9.45;3.28;;;21.20;99.90;;;;;;5090864;28;20431;-57
2023/06/21 08:02:51;;;;;;;5.32;3.17;;;21.30;99.90;;;;;;5090911;28;20024;-57
2023/06/21 08:05:17;;;;;;;4.07;3.05;;;21.30;99.90;;;;;;5090709;28;20036;-57
2023/06/21 08:07:43;;;;;;;8.00;3.33;;;21.30;99.90;;;;;;5090658;28;20024;-57
2023/06/21 08:10:09;;;;;;;5.35;3.55;;;21.30;99.90;;;;;;5090338;28;20026;-57
2023/06/21 08:12:35;;;;;;;4.47;2.97;;;21.30;99.90;;;;;;5090655;28;20038;-56
2023/06/21 08:15:01;;;;;;;4.20;3.75;;;21.40;99.90;;;;;;5084870;28;20089;-56
2023/06/21 08:17:26;;;;;;;6.18;3.58;;;21.60;99.90;;;;;;5083353;28;20024;-56
2023/06/21 08:19:52;;;;;;;5.80;3.33;;;21.70;99.90;;;;;;5094561;28;20055;-58
2023/06/21 08:22:18;;;;;;;5.82;3.38;;;22.00;99.90;;;;;;5094046;28;20044;-57
2023/06/21 08:24:44;;;;;;;3.75;3.40;;;21.90;99.90;;;;;;5093986;28;20024;-57
2023/06/21 08:27:09;;;;;;;6.95;3.63;;;22.00;99.90;;;;;;5092991;28;20093;-55
2023/06/21 08:29:35;;;;;;;4.82;3.45;;;22.10;99.90;;;;;;5094338;28;20040;-56
2023/06/21 08:32:01;;;;;;;4.55;3.15;;;22.00;99.90;;;;;;5093967;28;20043;-57
2023/06/21 08:34:27;;;;;;;6.18;3.22;;;22.00;99.90;;;;;;5093760;28;20039;-57
2023/06/21 08:36:53;;;;;;;7.05;3.55;;;22.20;99.90;;;;;;5093837;28;20394;-57
2023/06/21 08:39:18;;;;;;;4.40;3.38;;;22.30;99.90;;;;;;5092155;28;20028;-58
2023/06/21 08:41:44;;;;;;;3.95;3.10;;;22.60;99.90;;;;;;5093782;28;20551;-58
2023/06/21 08:44:10;;;;;;;4.30;3.30;;;22.70;99.90;;;;;;5094311;28;20615;-58
2023/06/21 08:46:36;;;;;;;6.05;3.83;;;22.60;99.90;;;;;;5093832;28;20020;-58
2023/06/21 08:49:05;;;;;;;3.97;3.25;;;22.50;99.90;;;;;;5093896;28;20032;-58
2023/06/21 08:51:37;;;;;;;6.03;3.95;;;22.40;99.90;;;;;;5093507;28;20074;-57
2023/06/21 08:54:09;;;;;;;4.40;4.00;;;22.30;99.90;;;;;;5093519;28;20032;-58
2023/06/21 08:56:50;;;;;;;4.07;3.33;;;22.30;99.90;;;;;;5093643;28;20504;-57
2023/06/21 08:59:30;;;;;;;4.32;3.47;;;22.30;99.90;;;;;;5093553;28;20312;-57
2023/06/21 09:01:59;;;;;;;5.90;3.97;;;22.50;99.90;;;;;;5093502;28;20501;-56
2023/06/21 09:04:27;;;;;;;5.35;3.45;;;22.60;99.90;;;;;;5093900;28;20505;-57
2023/06/21 09:06:54;;;;;;;6.25;3.38;;;22.70;99.90;;;;;;5093271;28;20035;-57
2023/06/21 09:09:23;;;;;;;5.53;3.40;;;22.70;99.90;;;;;;5092892;28;20107;-57
2023/06/21 09:11:51;;;;;;;7.00;3.60;;;22.90;99.90;;;;;;5093130;28;20111;-57
2023/06/21 09:14:18;;;;;;;5.03;3.65;;;22.90;99.90;;;;;;5092951;28;20423;-55
2023/06/21 09:16:46;;;;;;;8.98;3.72;;;23.00;99.90;;;;;;5093296;28;20707;-55
2023/06/21 09:19:13;;;;;;;4.75;3.55;;;23.00;99.90;;;;;;5092763;28;20059;-56
2023/06/21 09:21:42;;;;;;;3.95;3.63;;;23.00;99.90;;;;;;5092992;28;20047;-54
2023/06/21 09:24:07;;;;;;;4.60;3.55;;;22.90;99.90;;;;;;5093022;28;20039;-56
2023/06/21 09:26:34;;;;;;;4.85;3.38;;;22.90;99.90;;;;;;5093129;28;20020;-57
2023/06/21 09:29:00;;;;;;;4.72;3.60;;;22.90;99.90;;;;;;5093048;28;20020;-55
2023/06/21 09:31:27;;;;;;;7.43;3.92;;;23.00;99.90;;;;;;5092612;28;20132;-56
2023/06/21 09:33:55;;;;;;;4.53;3.50;;;23.10;99.90;;;;;;5092686;28;20040;-56
2023/06/21 09:36:20;;;;;;;4.82;3.50;;;23.30;99.90;;;;;;5092721;28;20032;-57
2023/06/21 09:38:46;;;;;;;6.55;3.22;;;23.20;99.90;;;;;;5092255;28;20108;-55
2023/06/21 09:41:12;;;;;;;5.47;3.70;;;23.00;99.90;;;;;;5092194;28;20015;-57
2023/06/21 09:43:42;;;;;;;4.95;3.88;;;23.10;99.90;;;;;;5089473;28;20111;-56
2023/06/21 09:46:10;;;;;;;4.93;3.70;;;23.10;99.90;;;;;;5092328;28;21111;-56
2023/06/21 09:48:37;;;;;;;6.93;3.53;;;23.00;99.90;;;;;;5092381;28;20102;-55
2023/06/21 09:51:05;;;;;;;4.40;3.47;;;23.00;99.90;;;;;;5091868;28;20028;-55
2023/06/21 09:53:31;;;;;;;6.07;3.67;;;23.00;99.90;;;;;;5091836;28;20024;-57
2023/06/21 09:55:57;;;;;;;5.38;3.72;;;23.20;99.90;;;;;;5091998;28;20066;-55
2023/06/21 09:58:23;;;;;;;4.20;3.80;;;23.10;99.90;;;;;;5090716;28;20031;-57
2023/06/21 10:00:49;;;;;;;4.55;3.53;;;23.10;99.90;;;;;;5090613;28;20020;-56
2023/06/21 10:03:15;;;;;;;4.13;3.40;;;22.90;99.90;;;;;;5091835;28;20027;-56
2023/06/21 10:05:57;;;;;;;4.93;3.63;;;22.70;99.90;;;;;;5090163;28;20020;-57
2023/06/21 10:08:28;;;;;;;6.73;3.80;;;22.50;99.90;;;;;;5072074;28;20033;-57
2023/06/21 10:10:54;;;;;;;5.10;3.75;;;22.50;99.90;;;;;;5070323;28;20028;-57
2023/06/21 10:13:30;;;;;;;8.00;4.60;;;22.40;99.90;;;;;;5071654;28;20037;-58
2023/06/21 10:15:56;;;;;;;10.90;5.70;;;22.30;99.90;;;;;;5070243;28;20109;-58
2023/06/21 10:18:25;;;;;;;12.18;5.70;;;22.10;99.90;;;;;;5088028;28;20501;-58
2023/06/21 10:21:12;;;;;;;11.95;6.45;;;22.00;99.90;;;;;;5091754;28;20092;-57
2023/06/21 10:23:41;;;;;;;8.50;5.78;;;21.90;99.90;;;;;;5092092;28;20521;-58
2023/06/21 10:26:14;;;;;;;11.20;6.68;;;21.70;99.90;;;;;;5091903;28;20039;-57
2023/06/21 10:28:43;;;;;;;8.50;6.40;;;21.70;99.90;;;;;;5091939;28;20511;-57
2023/06/21 10:31:09;;;;;;;8.90;6.35;;;21.70;99.90;;;;;;5091703;28;20028;-57
2023/06/21 10:33:36;;;;;;;8.80;6.38;;;21.70;99.90;;;;;;5091615;28;20050;-57
2023/06/21 10:36:04;;;;;;;9.90;6.80;;;21.80;99.90;;;;;;5091352;28;20073;-58
2023/06/21 10:38:44;;;;;;;10.35;6.82;;;21.80;99.90;;;;;;5091449;28;20020;-57
2023/06/21 10:41:12;;;;;;;8.88;6.75;;;21.90;99.90;;;;;;5091724;28;20558;-58
2023/06/21 10:43:39;;;;;;;7.82;6.47;;;22.00;99.90;;;;;;5091707;28;20062;-58
2023/06/21 10:46:07;;;;;;;9.15;5.63;;;22.30;99.90;;;;;;5091473;28;20035;-58
2023/06/21 10:48:34;;;;;;;8.57;5.50;;;22.30;99.90;;;;;;5091695;28;20032;-58
2023/06/21 10:51:01;;;;;;;7.60;5.50;;;22.50;99.90;;;;;;5091112;28;20486;-56
2023/06/21 10:53:36;;;;;;;6.25;4.82;;;22.50;99.90;;;;;;5091513;28;20048;-58
2023/06/21 10:56:05;;;;;;;5.70;5.10;;;22.60;99.90;;;;;;5091403;28;20514;-59
2023/06/21 10:58:31;;;;;;;6.78;5.15;;;22.80;99.90;;;;;;5091313;28;20104;-58
2023/06/21 11:00:59;;;;;;;5.97;5.03;;;22.90;99.90;;;;;;5091128;28;20047;-59
2023/06/21 11:03:26;;;;;;;6.75;5.35;;;23.00;99.90;;;;;;5089627;28;20055;-58
2023/06/21 11:05:54;;;;;;;5.45;4.53;;;23.10;99.90;;;;;;5091044;28;20454;-58
2023/06/21 11:08:36;;;;;;;6.05;4.85;;;23.20;99.90;;;;;;5091375;28;20035;-58
2023/06/21 11:11:02;;;;;;;4.85;4.38;;;23.30;99.90;;;;;;5091576;28;20454;-58
2023/06/21 11:13:39;;;;;;;5.20;4.70;;;23.20;99.90;;;;;;5090860;28;20076;-58
2023/06/21 11:16:23;;;;;;;6.40;4.57;;;23.40;99.90;;;;;;5091088;28;20039;-58
2023/06/21 11:18:55;;;;;;;5.65;4.80;;;23.40;99.90;;;;;;5090558;28;20055;-58
2023/06/21 11:21:44;;;;;;;6.53;4.90;;;23.30;99.90;;;;;;5091153;28;20176;-58
2023/06/21 11:24:12;;;;;;;5.13;4.65;;;23.20;99.90;;;;;;5091398;28;20059;-58
2023/06/21 11:27:00;;;;;;;5.95;4.70;;;23.10;99.90;;;;;;5090865;28;20024;-56
2023/06/21 11:29:38;;;;;;;5.75;5.20;;;23.10;99.90;;;;;;5089582;28;20058;-58
2023/06/21 11:32:15;;;;;;;5.32;4.82;;;23.10;99.90;;;;;;5089948;28;20032;-58
2023/06/21 11:34:51;;;;;;;6.10;5.50;;;23.10;99.90;;;;;;5090702;28;20043;-58
2023/06/21 11:37:56;;;;;;;6.18;5.10;;;23.00;99.90;;;;;;5090737;28;20024;-59
2023/06/21 11:40:29;;;;;;;6.15;4.80;;;22.90;99.90;;;;;;5028653;28;20076;-58
2023/06/21 11:42:54;;;;;;;5.53;4.90;;;22.90;99.90;;;;;;5028509;28;20119;-58
2023/06/21 11:45:24;;;;;;;5.68;5.18;;;22.90;99.90;;;;;;5028859;28;20073;-58
2023/06/21 11:48:17;;;;;;;7.40;5.10;;;22.90;99.90;;;;;;5028188;28;20040;-58
2023/06/21 11:50:50;;;;;;;5.38;4.90;;;23.00;99.90;;;;;;5029000;28;20045;-59
2023/06/21 11:53:23;;;;;;;5.55;5.05;;;23.10;99.90;;;;;;5032246;28;20056;-58
2023/06/21 11:56:01;;;;;;;6.40;5.22;;;23.20;99.90;;;;;;5032274;28;20079;-58
2023/06/21 11:58:27;;;;;;;5.80;5.22;;;23.30;99.90;;;;;;5032352;28;20500;-58
2023/06/21 12:00:54;;;;;;;6.63;4.85;;;23.30;99.90;;;;;;5032105;28;20518;-59
2023/06/21 12:03:22;;;;;;;5.75;5.18;;;23.50;99.90;;;;;;5031974;28;20029;-59
2023/06/21 12:05:50;;;;;;;6.13;4.75;;;23.50;99.90;;;;;;5032134;28;20044;-58
2023/06/21 12:08:18;;;;;;;6.35;5.03;;;23.70;99.90;;;;;;5032028;28;20403;-59
2023/06/21 12:10:44;;;;;;;6.85;4.95;;;23.70;99.90;;;;;;5032438;28;20037;-58
2023/06/21 12:13:14;;;;;;;7.35;4.97;;;24.00;99.90;;;;;;5034373;28;20124;-59
2023/06/21 12:15:50;;;;;;;5.38;4.55;;;23.90;99.90;;;;;;5094583;28;20031;-59
2023/06/21 12:18:16;;;;;;;6.68;5.32;;;24.10;99.90;;;;;;5094526;28;20486;-58
2023/06/21 12:20:42;;;;;;;5.90;5.30;;;24.10;99.90;;;;;;5094346;28;20084;-59
2023/06/21 12:23:09;;;;;;;6.05;5.43;;;24.20;99.90;;;;;;5094147;28;20148;-58
2023/06/21 12:26:02;;;;;;;6.40;5.22;;;24.20;99.90;;;;;;5094190;28;20036;-59
2023/06/21 12:28:28;;;;;;;6.13;5.28;;;24.00;99.90;;;;;;5091735;28;20123;-58
2023/06/21 12:31:12;;;;;;;6.22;4.93;;;24.10;99.90;;;;;;5094341;28;20030;-59
2023/06/21 12:33:40;;;;;;;7.47;5.40;;;24.10;99.90;;;;;;5094193;28;20040;-58
2023/06/21 12:36:20;;;;;;;6.97;5.95;;;24.00;99.90;;;;;;5094344;28;20036;-58
2023/06/21 12:39:00;;;;;;;10.52;5.90;;;24.00;99.90;;;;;;5094001;28;20024;-58
2023/06/21 12:41:27;;;;;;;8.10;5.47;;;24.00;99.90;;;;;;5094070;28;20098;-58
2023/06/21 12:44:06;;;;;;;5.75;4.88;;;24.00;99.90;;;;;;5093795;28;20413;-58
2023/06/21 12:46:38;;;;;;;9.20;5.43;;;24.00;99.90;;;;;;5094044;28;20068;-58
2023/06/21 12:49:04;;;;;;;6.00;4.88;;;23.90;99.90;;;;;;5094038;28;20221;-58
2023/06/21 12:51:36;;;;;;;7.32;5.10;;;24.00;99.90;;;;;;5093668;28;20493;-59